Time;durP1;ratioP1;P1;durP2;ratioP2;P2;SDS_P1;SDS_P2;PMS_P1;PMS_P2;Temp;Humidity;BMP_temperature;BMP_pressure;BME280_temperature;BME280_humidity;BME280_pressure;Samples;Min_cycle;Max_cycle;Signal;HPM_P1;HPM_P2
2023/09/21 00:01:43;;;;;;;50.65;17.40;;;;;;;12.49;100.00;99523.50;5178873;27;20144;-65
2023/09/21 00:04:09;;;;;;;32.85;13.13;;;;;;;12.51;100.00;99523.94;5178480;27;20057;-64
2023/09/21 00:06:36;;;;;;;41.13;15.18;;;;;;;12.50;100.00;99529.81;5178793;27;20047;-64
2023/09/21 00:09:03;;;;;;;31.85;13.05;;;;;;;12.51;100.00;99521.19;5178510;27;20050;-64
2023/09/21 00:11:30;;;;;;;30.08;12.18;;;;;;;12.47;100.00;99523.88;5178830;27;20154;-66
2023/09/21 00:13:56;;;;;;;34.05;12.60;;;;;;;12.48;100.00;99516.41;5178457;27;20133;-64
2023/09/21 00:16:25;;;;;;;20.05;10.20;;;;;;;12.44;100.00;99524.59;5178797;27;20051;-65
2023/09/21 00:18:51;;;;;;;19.17;11.43;;;;;;;12.45;100.00;99525.41;5178405;27;20050;-65
2023/09/21 00:21:19;;;;;;;17.23;10.73;;;;;;;12.42;100.00;99526.91;5178752;27;20486;-64
2023/09/21 00:23:47;;;;;;;17.80;10.32;;;;;;;12.40;100.00;99531.22;5178165;27;20046;-65
2023/09/21 00:26:14;;;;;;;20.45;10.85;;;;;;;12.38;100.00;99534.31;5178486;27;20046;-64
2023/09/21 00:28:40;;;;;;;24.45;10.63;;;;;;;12.33;100.00;99534.66;5178218;27;20054;-63
2023/09/21 00:31:06;;;;;;;17.08;10.50;;;;;;;12.31;100.00;99536.97;5178047;27;20046;-66
2023/09/21 00:33:33;;;;;;;20.23;10.50;;;;;;;12.29;100.00;99543.97;5178224;27;20392;-64
2023/09/21 00:35:59;;;;;;;19.75;10.70;;;;;;;12.28;100.00;99543.19;5178194;27;20046;-65
2023/09/21 00:38:27;;;;;;;21.52;10.73;;;;;;;12.18;100.00;99539.09;5178261;27;20057;-63
2023/09/21 00:40:56;;;;;;;17.25;11.02;;;;;;;12.22;100.00;99526.19;5178187;27;20058;-65
2023/09/21 00:43:25;;;;;;;17.80;10.18;;;;;;;12.22;100.00;99533.66;5178435;27;20405;-62
2023/09/21 00:45:53;;;;;;;27.42;11.13;;;;;;;12.23;100.00;99530.56;5178033;27;20110;-65
2023/09/21 00:48:23;;;;;;;24.60;12.15;;;;;;;12.21;100.00;99535.63;5178428;27;20102;-63
2023/09/21 00:50:53;;;;;;;27.98;12.48;;;;;;;12.20;100.00;99539.53;5178260;27;20053;-63
2023/09/21 00:53:20;;;;;;;23.85;11.77;;;;;;;12.22;100.00;99541.91;5181702;27;20091;-64
2023/09/21 00:55:51;;;;;;;27.88;11.48;;;;;;;12.20;100.00;99533.25;5181743;27;20110;-63
2023/09/21 00:58:19;;;;;;;49.55;16.45;;;;;;;12.24;100.00;99536.84;5181536;27;20061;-66
2023/09/21 01:00:46;;;;;;;30.42;12.25;;;;;;;12.07;100.00;99540.88;5181551;27;20495;-65
2023/09/21 01:03:13;;;;;;;31.40;12.77;;;;;;;12.14;100.00;99537.47;5181455;27;20073;-65
2023/09/21 01:05:41;;;;;;;27.58;12.63;;;;;;;12.16;100.00;99535.94;5181549;27;20057;-66
2023/09/21 01:08:10;;;;;;;16.23;10.38;;;;;;;12.15;100.00;99539.03;5181304;27;20194;-65
2023/09/21 01:10:38;;;;;;;22.52;11.07;;;;;;;12.11;100.00;99533.47;5181468;27;20138;-64
2023/09/21 01:13:07;;;;;;;14.90;10.27;;;;;;;12.11;100.00;99533.47;5181136;27;20301;-66
2023/09/21 01:15:33;;;;;;;24.58;10.80;;;;;;;12.10;100.00;99531.91;5181580;27;20050;-63
2023/09/21 01:17:59;;;;;;;16.35;9.70;;;;;;;12.07;100.00;99538.13;5181293;27;20102;-63
2023/09/21 01:20:30;;;;;;;22.65;11.98;;;;;;;12.07;100.00;99543.63;5181251;27;20129;-63
2023/09/21 01:23:11;;;;;;;37.40;14.10;;;;;;;12.10;100.00;99542.09;5181316;27;20046;-65
2023/09/21 01:25:39;;;;;;;23.92;12.10;;;;;;;12.08;100.00;99536.16;5180818;27;20050;-66
2023/09/21 01:28:06;;;;;;;22.73;10.85;;;;;;;12.10;100.00;99537.41;5181311;27;20046;-66
2023/09/21 01:30:33;;;;;;;20.90;11.40;;;;;;;12.08;100.00;99547.16;5180926;27;20050;-63
2023/09/21 01:33:03;;;;;;;20.73;10.68;;;;;;;12.08;100.00;99545.19;5181252;27;20056;-66
2023/09/21 01:35:30;;;;;;;16.80;9.95;;;;;;;12.06;100.00;99555.75;5180831;27;20343;-66
2023/09/21 01:37:55;;;;;;;20.83;10.43;;;;;;;12.06;100.00;99552.22;5181231;27;20109;-63
2023/09/21 01:40:21;;;;;;;19.13;10.32;;;;;;;12.07;100.00;99548.31;5180623;27;20078;-63
2023/09/21 01:42:48;;;;;;;19.50;11.88;;;;;;;12.07;100.00;99549.13;5180956;27;20084;-64
2023/09/21 01:45:16;;;;;;;16.92;10.43;;;;;;;12.07;100.00;99553.81;5180947;27;20144;-66
2023/09/21 01:47:42;;;;;;;21.48;11.02;;;;;;;12.06;100.00;99546.72;5180606;27;20062;-66
2023/09/21 01:50:11;;;;;;;20.58;11.38;;;;;;;12.08;100.00;99544.41;5180840;27;20107;-65
2023/09/21 01:52:37;;;;;;;15.88;9.85;;;;;;;12.07;100.00;99548.31;5180717;27;20056;-64
2023/09/21 01:55:06;;;;;;;21.40;11.55;;;;;;;12.11;100.00;99549.97;5180889;27;20050;-64
2023/09/21 01:57:33;;;;;;;18.45;11.27;;;;;;;12.11;100.00;99544.47;5180563;27;20104;-65
2023/09/21 02:00:01;;;;;;;17.98;10.95;;;;;;;12.15;100.00;99550.03;5180834;27;20046;-66
2023/09/21 02:02:27;;;;;;;19.55;9.88;;;;;;;12.15;100.00;99553.56;5180246;27;20065;-64
2023/09/21 02:04:52;;;;;;;28.30;11.82;;;;;;;12.12;100.00;99557.03;5180798;27;20140;-63
2023/09/21 02:07:19;;;;;;;23.30;11.68;;;;;;;12.09;100.00;99556.97;5180195;27;20081;-63
2023/09/21 02:09:45;;;;;;;23.02;10.25;;;;;;;12.08;100.00;99560.91;5180379;27;20057;-65
2023/09/21 02:12:11;;;;;;;22.85;10.23;;;;;;;12.15;100.00;99563.78;5180622;27;20081;-64
2023/09/21 02:14:37;;;;;;;20.70;10.57;;;;;;;12.17;100.00;99561.47;5180364;27;20455;-62
2023/09/21 02:17:03;;;;;;;22.75;10.73;;;;;;;12.13;100.00;99577.06;5180485;27;20046;-64
2023/09/21 02:19:34;;;;;;;20.02;10.70;;;;;;;12.16;100.00;99581.84;5180258;27;20348;-64
2023/09/21 02:22:00;;;;;;;25.27;11.20;;;;;;;12.18;100.00;99576.78;5180439;27;20046;-65
2023/09/21 02:24:26;;;;;;;20.83;10.55;;;;;;;12.14;100.00;99582.22;5180046;27;20056;-66
2023/09/21 02:26:53;;;;;;;20.48;10.93;;;;;;;12.22;100.00;99583.91;5180384;27;20054;-63
2023/09/21 02:29:19;;;;;;;17.70;10.23;;;;;;;12.23;100.00;99585.53;5179859;27;20050;-66
2023/09/21 02:31:45;;;;;;;19.70;9.52;;;;;;;12.19;100.00;99589.34;5180380;27;20131;-65
2023/09/21 02:34:12;;;;;;;23.25;10.30;;;;;;;12.20;100.00;99588.22;5179908;27;20050;-65
2023/09/21 02:36:38;;;;;;;19.30;9.73;;;;;;;12.18;100.00;99596.81;5180236;27;20050;-63
2023/09/21 02:39:10;;;;;;;23.20;10.27;;;;;;;12.19;100.00;99598.41;5179924;27;20061;-64
2023/09/21 02:41:36;;;;;;;20.00;10.25;;;;;;;12.19;100.00;99601.16;5179876;27;20050;-65
2023/09/21 02:44:03;;;;;;;18.73;9.88;;;;;;;12.20;100.00;99594.50;5179770;27;20356;-64
2023/09/21 02:46:29;;;;;;;19.17;9.32;;;;;;;12.13;100.00;99602.63;5179784;27;20090;-65
2023/09/21 02:48:55;;;;;;;22.10;10.07;;;;;;;12.22;100.00;99592.16;5179849;27;20061;-63
2023/09/21 02:51:23;;;;;;;19.10;9.55;;;;;;;12.17;100.00;99595.22;5179462;27;20323;-63
2023/09/21 02:53:49;;;;;;;19.08;9.88;;;;;;;12.19;100.00;99603.09;5179907;27;20050;-64
2023/09/21 02:56:19;;;;;;;23.83;11.23;;;;;;;12.03;100.00;99605.97;5179548;27;20046;-64
2023/09/21 02:58:45;;;;;;;23.33;10.23;;;;;;;12.12;100.00;99603.75;5179887;27;20418;-64
2023/09/21 03:01:15;;;;;;;18.63;9.35;;;;;;;12.14;100.00;99604.22;5179388;27;20145;-66
2023/09/21 03:03:41;;;;;;;21.88;10.15;;;;;;;12.11;100.00;99598.66;5179653;27;20336;-66
2023/09/21 03:06:07;;;;;;;23.73;9.98;;;;;;;12.11;100.00;99602.19;5179278;27;20077;-66
2023/09/21 03:08:34;;;;;;;25.50;10.57;;;;;;;12.10;100.00;99603.34;5179429;27;20061;-63
2023/09/21 03:11:00;;;;;;;18.88;10.00;;;;;;;12.10;100.00;99603.34;5179517;27;20110;-63
2023/09/21 03:13:26;;;;;;;18.10;9.63;;;;;;;12.15;100.00;99596.75;5178826;27;20145;-66
2023/09/21 03:15:54;;;;;;;23.13;10.00;;;;;;;12.11;100.00;99601.41;5179307;27;20052;-65
2023/09/21 03:18:21;;;;;;;16.77;9.77;;;;;;;12.19;100.00;99600.34;5179299;27;20154;-63
2023/09/21 03:20:48;;;;;;;20.40;10.40;;;;;;;12.18;100.00;99609.78;5179402;27;20495;-66
2023/09/21 03:23:15;;;;;;;13.82;8.60;;;;;;;12.17;100.00;99621.94;5179206;27;20050;-66
2023/09/21 03:25:43;;;;;;;19.92;9.43;;;;;;;12.16;100.00;99615.66;5179415;27;20057;-64
2023/09/21 03:28:13;;;;;;;18.42;10.13;;;;;;;12.14;100.00;99620.69;5179004;27;20190;-62
2023/09/21 03:30:39;;;;;;;17.40;8.85;;;;;;;12.17;100.00;99617.22;5179326;27;20407;-66
2023/09/21 03:33:06;;;;;;;19.25;9.77;;;;;;;12.16;100.00;99617.56;5179266;27;20058;-63
2023/09/21 03:35:32;;;;;;;18.02;9.48;;;;;;;12.11;100.00;99621.44;5179076;27;20054;-66
2023/09/21 03:37:58;;;;;;;23.90;10.73;;;;;;;12.14;100.00;99623.44;5178976;27;20343;-66
2023/09/21 03:40:25;;;;;;;21.55;9.23;;;;;;;12.16;100.00;99629.38;5178961;27;20227;-63
2023/09/21 03:42:52;;;;;;;21.08;9.73;;;;;;;12.01;100.00;99633.78;5179214;27;20057;-65
2023/09/21 03:45:20;;;;;;;18.60;9.20;;;;;;;12.02;100.00;99642.84;5178749;27;20103;-63
2023/09/21 03:47:46;;;;;;;20.77;9.20;;;;;;;11.98;100.00;99640.00;5179121;27;20057;-64
2023/09/21 03:50:14;;;;;;;17.38;9.70;;;;;;;12.02;100.00;99629.88;5178691;27;20101;-65
2023/09/21 03:52:40;;;;;;;16.67;9.63;;;;;;;12.06;100.00;99629.16;5179247;27;20054;-64
2023/09/21 03:55:09;;;;;;;14.15;9.13;;;;;;;12.10;100.00;99635.53;5178676;27;20073;-63
2023/09/21 03:57:35;;;;;;;20.20;9.90;;;;;;;12.01;100.00;99630.25;5179111;27;20126;-63
2023/09/21 04:00:08;;;;;;;20.17;10.02;;;;;;;11.99;100.00;99625.13;5178852;27;20148;-64
2023/09/21 04:02:34;;;;;;;18.70;10.18;;;;;;;12.06;100.00;99618.97;5178810;27;20142;-65
2023/09/21 04:05:09;;;;;;;21.23;9.88;;;;;;;12.12;100.00;99631.25;5178798;27;20082;-64
2023/09/21 04:07:35;;;;;;;20.52;9.50;;;;;;;12.06;100.00;99624.44;5178461;27;20407;-64
2023/09/21 04:10:01;;;;;;;20.95;10.18;;;;;;;12.12;100.00;99631.25;5178684;27;20061;-64
2023/09/21 04:12:27;;;;;;;17.38;9.20;;;;;;;12.10;100.00;99632.78;5178366;27;20046;-66
2023/09/21 04:14:53;;;;;;;18.77;9.65;;;;;;;12.12;100.00;99639.50;5178841;27;20053;-65
2023/09/21 04:17:19;;;;;;;16.33;9.02;;;;;;;12.16;100.00;99632.13;5178476;27;20074;-64
2023/09/21 04:19:45;;;;;;;20.20;9.82;;;;;;;12.14;100.00;99648.19;5178801;27;20042;-65
2023/09/21 04:22:12;;;;;;;17.67;9.32;;;;;;;12.22;100.00;99641.66;5178267;27;20141;-64
2023/09/21 04:24:38;;;;;;;14.88;9.23;;;;;;;12.30;100.00;99652.81;5178694;27;20042;-66
2023/09/21 04:27:03;;;;;;;17.13;9.35;;;;;;;12.33;100.00;99657.53;5180657;27;20107;-65
2023/09/21 04:29:29;;;;;;;21.40;10.23;;;;;;;12.37;100.00;99656.47;5181889;27;20082;-63
2023/09/21 04:31:55;;;;;;;26.17;10.45;;;;;;;12.40;100.00;99658.50;5181862;27;20057;-62
2023/09/21 04:34:22;;;;;;;28.17;10.50;;;;;;;12.51;100.00;99666.13;5181915;27;20138;-63
2023/09/21 04:36:48;;;;;;;20.70;9.50;;;;;;;12.59;100.00;99668.63;5182085;27;20132;-63
2023/09/21 04:39:15;;;;;;;21.55;10.20;;;;;;;12.65;100.00;99669.13;5181798;27;20066;-63
2023/09/21 04:41:41;;;;;;;19.95;10.00;;;;;;;12.68;100.00;99677.44;5181810;27;20411;-64
2023/09/21 04:44:08;;;;;;;16.33;8.50;;;;;;;12.72;100.00;99672.78;5181505;27;20143;-66
2023/09/21 04:46:36;;;;;;;26.30;10.65;;;;;;;12.83;100.00;99672.19;5181798;27;20057;-66
2023/09/21 04:49:03;;;;;;;24.65;11.63;;;;;;;12.91;100.00;99682.16;5181380;27;20046;-66
2023/09/21 04:51:29;;;;;;;19.23;9.45;;;;;;;12.98;100.00;99682.28;5181862;27;20061;-65
2023/09/21 04:53:55;;;;;;;15.80;8.77;;;;;;;13.03;100.00;99676.47;5181143;27;20415;-65
2023/09/21 04:56:21;;;;;;;11.63;8.13;;;;;;;13.11;100.00;99678.16;5181265;27;20056;-66
2023/09/21 04:58:47;;;;;;;14.50;8.45;;;;;;;13.21;100.00;99676.75;5181594;27;20137;-66
2023/09/21 05:01:13;;;;;;;14.77;9.25;;;;;;;13.25;100.00;99665.81;5181423;27;20077;-66
2023/09/21 05:03:39;;;;;;;19.48;8.27;;;;;;;13.31;100.00;99664.34;5181454;27;20050;-65
2023/09/21 05:06:05;;;;;;;15.85;8.95;;;;;;;13.47;100.00;99653.16;5181192;27;20050;-61
2023/09/21 05:08:36;;;;;;;19.13;8.23;;;;;;;13.47;100.00;99648.44;5181382;27;20107;-67
2023/09/21 05:11:02;;;;;;;27.13;9.10;;;;;;;13.62;100.00;99630.13;5181017;27;20076;-61
2023/09/21 05:13:28;;;;;;;24.48;9.38;;;;;;;13.69;100.00;99621.16;5181366;27;20045;-64
2023/09/21 05:15:54;;;;;;;27.90;10.98;;;;;;;13.95;100.00;99592.72;5180948;27;20140;-63
2023/09/21 05:18:20;;;;;;;37.08;12.77;;;;;;;14.07;100.00;99549.16;5181372;27;20052;-61
2023/09/21 05:20:46;;;;;;;36.58;11.45;;;;;;;14.39;100.00;99503.72;5180921;27;20346;-62
2023/09/21 05:23:12;;;;;;;16.90;9.60;;;;;;;15.00;100.00;99395.31;5181243;27;20137;-64
2023/09/21 05:25:39;;;;;;;28.75;11.05;;;;;;;15.21;100.00;99181.16;5180749;27;20046;-64
2023/09/21 05:28:05;;;;;;;22.10;10.73;;;;;;;15.34;100.00;99027.66;5180848;27;20054;-61
2023/09/21 05:30:31;;;;;;;24.33;10.20;;;;;;;15.45;100.00;98914.34;5181027;27;20054;-65
2023/09/21 05:32:58;;;;;;;20.55;7.78;;;;;;;15.52;100.00;98868.13;5180791;27;20046;-63
2023/09/21 05:35:23;;;;;;;15.98;8.70;;;;;;;16.02;100.00;98747.31;5180611;27;20144;-66
2023/09/21 05:37:50;;;;;;;19.02;11.90;;;;;;;16.46;100.00;98586.72;5180028;27;20072;-65
2023/09/21 05:40:16;;;;;;;13.85;7.45;;;;;;;16.61;100.00;98426.00;5180437;27;20466;-60
2023/09/21 05:42:44;;;;;;;13.80;7.63;;;;;;;16.66;100.00;98375.66;5179773;27;20430;-64
2023/09/21 05:45:10;;;;;;;15.52;11.48;;;;;;;16.91;100.00;98345.53;5180962;27;20057;-62
2023/09/21 05:47:36;;;;;;;13.02;8.07;;;;;;;16.82;100.00;98322.41;5180404;27;20137;-64
2023/09/21 05:50:05;;;;;;;26.95;8.98;;;;;;;17.92;100.00;98291.38;5180838;27;20046;-65
2023/09/21 05:52:32;;;;;;;12.85;7.20;;;;;;;17.87;100.00;98301.03;5180575;27;20331;-62
2023/09/21 05:54:58;;;;;;;20.52;11.32;;;;;;;17.45;100.00;98288.97;5180497;27;20316;-62
2023/09/21 05:57:24;;;;;;;12.73;7.80;;;;;;;17.81;100.00;98291.66;5180641;27;20070;-61
2023/09/21 05:59:51;;;;;;;13.65;8.00;;;;;;;18.09;100.00;98315.13;5180195;27;20042;-61
2023/09/21 06:02:17;;;;;;;12.32;7.43;;;;;;;18.56;100.00;98331.31;5180457;27;20046;-62
2023/09/21 06:04:43;;;;;;;18.35;8.95;;;;;;;18.97;100.00;98365.09;5180260;27;20399;-55
2023/09/21 06:07:09;;;;;;;10.70;7.32;;;;;;;19.38;100.00;98422.63;5180393;27;20065;-59
2023/09/21 06:09:35;;;;;;;14.38;7.25;;;;;;;19.91;100.00;98486.22;5179859;27;20054;-61
2023/09/21 06:12:01;;;;;;;15.13;7.32;;;;;;;20.08;100.00;98546.09;5179813;27;20046;-62
2023/09/21 06:14:27;;;;;;;15.77;8.23;;;;;;;19.99;100.00;98537.63;5180040;27;20110;-62
2023/09/21 06:16:53;;;;;;;14.30;7.88;;;;;;;19.89;100.00;98502.56;5180334;27;20046;-60
2023/09/21 06:19:19;;;;;;;13.52;7.18;;;;;;;19.77;100.00;98525.59;5179819;27;20068;-61
2023/09/21 06:21:47;;;;;;;14.00;7.38;;;;;;;19.93;100.00;98508.81;5180102;27;20088;-60
2023/09/21 06:24:14;;;;;;;14.82;7.45;;;;;;;20.65;100.00;98569.38;5180097;27;20129;-63
2023/09/21 06:26:40;;;;;;;14.27;7.25;;;;;;;21.08;100.00;98617.34;5179511;27;20057;-60
2023/09/21 06:29:06;;;;;;;14.93;6.70;;;;;;;21.26;100.00;98609.19;5180083;27;20052;-59
2023/09/21 06:31:32;;;;;;;19.02;8.23;;;;;;;21.32;100.00;98648.38;5179641;27;20081;-60
2023/09/21 06:33:59;;;;;;;25.50;8.38;;;;;;;21.47;100.00;98705.28;5179968;27;20106;-60
2023/09/21 06:36:28;;;;;;;18.48;7.32;;;;;;;22.35;100.00;98712.97;5179412;27;20050;-59
2023/09/21 06:38:55;;;;;;;32.95;8.82;;;;;;;22.89;100.00;98799.16;5179869;27;20137;-64
2023/09/21 06:41:21;;;;;;;19.40;7.35;;;;;;;23.27;100.00;98803.69;5179403;27;20137;-59
2023/09/21 06:43:47;;;;;;;25.48;8.30;;;;;;;24.06;100.00;98854.47;5179606;27;20136;-58
2023/09/21 06:46:13;;;;;;;26.73;10.68;;;;;;;24.38;100.00;98875.50;5179203;27;20085;-61
2023/09/21 06:48:40;;;;;;;28.35;11.32;;;;;;;24.35;100.00;98898.06;5178800;27;20042;-63
2023/09/21 06:51:07;;;;;;;21.27;9.10;;;;;;;23.85;100.00;98889.72;5179210;27;20403;-62
2023/09/21 06:53:34;;;;;;;24.92;9.60;;;;;;;24.14;100.00;98894.16;5179396;27;20073;-65
2023/09/21 06:56:00;;;;;;;19.95;10.80;;;;;;;23.31;100.00;98915.44;5179279;27;20067;-62
2023/09/21 06:58:26;;;;;;;16.65;6.97;;;;;;;23.18;100.00;98901.53;5179130;27;20137;-63
2023/09/21 07:00:52;;;;;;;13.15;6.85;;;;;;;23.21;100.00;98911.78;5179727;27;20141;-64
2023/09/21 07:03:18;;;;;;;28.92;10.38;;;;;;;23.41;100.00;98895.44;5179372;27;20050;-64
2023/09/21 07:05:48;;;;;;;19.00;10.60;;;;;;;23.41;100.00;98889.06;5179511;27;20050;-58
2023/09/21 07:08:15;;;;;;;23.05;11.23;;;;;;;22.99;100.00;98873.47;5179196;27;20095;-62
2023/09/21 07:10:43;;;;;;;25.17;13.82;;;;;;;23.15;100.00;98838.13;5179371;27;20045;-56
2023/09/21 07:13:09;;;;;;;18.20;7.32;;;;;;;23.23;100.00;98839.41;5178979;27;20077;-58
2023/09/21 07:15:37;;;;;;;26.52;12.18;;;;;;;23.04;100.00;98813.38;5179427;27;20387;-59
2023/09/21 07:18:05;;;;;;;22.23;7.88;;;;;;;22.72;100.00;98806.94;5179103;27;20153;-61
2023/09/21 07:20:31;;;;;;;29.65;9.50;;;;;;;22.65;100.00;98834.38;5178941;27;20042;-55
2023/09/21 07:22:57;;;;;;;22.17;8.90;;;;;;;22.87;100.00;98806.44;5178680;27;20471;-56
2023/09/21 07:25:25;;;;;;;19.85;11.95;;;;;;;22.45;100.00;98871.78;5178747;27;20046;-60
2023/09/21 07:27:54;;;;;;;20.90;8.73;;;;;;;22.70;100.00;98868.09;5179032;27;20042;-55
2023/09/21 07:30:20;;;;;;;28.90;12.82;;;;;;;22.81;100.00;98797.84;5178413;27;20396;-53
2023/09/21 07:32:46;;;;;;;20.65;8.77;;;;;;;22.44;100.00;98850.66;5178937;27;20403;-58
2023/09/21 07:35:14;;;;;;;20.88;10.15;;;;;;;22.15;100.00;98862.03;5178648;27;20061;-59
2023/09/21 07:37:40;;;;;;;22.20;11.05;;;;;;;22.70;100.00;98898.84;5178898;27;20064;-60
2023/09/21 07:40:08;;;;;;;25.17;15.40;;;;;;;22.02;100.00;98875.22;5178699;27;20339;-56
2023/09/21 07:42:34;;;;;;;20.60;9.05;;;;;;;23.02;100.00;98878.16;5179134;27;20042;-58
2023/09/21 07:45:00;;;;;;;31.50;12.27;;;;;;;22.99;100.00;98893.03;5178636;27;20056;-54
2023/09/21 07:47:26;;;;;;;25.77;11.10;;;;;;;23.13;100.00;98880.53;5178594;27;20054;-62
2023/09/21 07:49:55;;;;;;;33.45;16.95;;;;;;;23.18;100.00;98873.56;5178419;27;20058;-60
2023/09/21 07:52:23;;;;;;;24.88;9.57;;;;;;;23.08;100.00;98871.94;5178628;27;20145;-58
2023/09/21 07:54:49;;;;;;;28.67;15.57;;;;;;;23.17;100.00;98836.44;5178796;27;20073;-57
2023/09/21 07:57:16;;;;;;;25.45;9.05;;;;;;;23.37;100.00;98866.03;5178344;27;20054;-55
2023/09/21 07:59:43;;;;;;;18.15;11.65;;;;;;;23.47;100.00;98881.63;5179050;27;20099;-62
2023/09/21 08:02:09;;;;;;;16.92;8.63;;;;;;;23.37;100.00;98880.81;5182169;27;20149;-61
2023/09/21 08:04:35;;;;;;;16.25;9.05;;;;;;;23.88;100.00;98872.00;5182564;27;20054;-60
2023/09/21 08:07:03;;;;;;;13.00;6.20;;;;;;;23.69;100.00;98901.16;5182030;27;20047;-60
2023/09/21 08:09:29;;;;;;;18.48;7.80;;;;;;;23.54;100.00;98902.97;5182353;27;20042;-58
2023/09/21 08:11:56;;;;;;;18.33;6.00;;;;;;;24.30;100.00;98907.88;5181882;27;20391;-61
2023/09/21 08:14:23;;;;;;;17.98;5.72;;;;;;;24.11;100.00;98895.09;5181859;27;20054;-59
2023/09/21 08:16:52;;;;;;;23.10;7.72;;;;;;;24.20;100.00;98900.72;5181813;27;20414;-60
2023/09/21 08:19:18;;;;;;;16.83;8.15;;;;;;;23.33;100.00;98904.56;5181950;27;20088;-64
2023/09/21 08:21:44;;;;;;;21.65;10.15;;;;;;;23.79;100.00;98891.59;5181967;27;20198;-58
2023/09/21 08:24:09;;;;;;;18.50;8.85;;;;;;;24.01;100.00;98913.09;5181835;27;20335;-58
2023/09/21 08:26:35;;;;;;;14.93;5.85;;;;;;;23.25;100.00;98890.84;5181875;27;20056;-56
2023/09/21 08:29:01;;;;;;;15.75;5.85;;;;;;;23.78;100.00;98909.59;5181296;27;20057;-56
2023/09/21 08:31:28;;;;;;;11.82;5.68;;;;;;;23.95;100.00;98908.09;5181730;27;20050;-60
2023/09/21 08:33:54;;;;;;;16.33;5.78;;;;;;;24.42;100.00;98914.59;5181524;27;20082;-57
2023/09/21 08:36:20;;;;;;;13.77;7.15;;;;;;;24.07;100.00;98911.25;5181868;27;20062;-57
2023/09/21 08:38:46;;;;;;;18.90;8.00;;;;;;;24.96;100.00;98941.09;5181488;27;20046;-58
2023/09/21 08:41:13;;;;;;;19.33;8.20;;;;;;;25.25;100.00;98943.41;5181986;27;20050;-63
2023/09/21 08:43:40;;;;;;;26.88;5.93;;;;;;;25.56;100.00;98967.69;5181555;27;20042;-63
2023/09/21 08:46:11;;;;;;;20.85;5.78;;;;;;;25.80;100.00;98974.19;5181357;27;20331;-55
2023/09/21 08:48:40;;;;;;;17.83;7.70;;;;;;;24.95;100.00;98949.97;5181919;27;20045;-56
2023/09/21 08:51:10;;;;;;;20.40;7.80;;;;;;;25.56;100.00;98979.69;5181383;27;20050;-60
2023/09/21 08:53:37;;;;;;;14.85;7.75;;;;;;;26.09;100.00;98984.06;5181638;27;20042;-59
2023/09/21 08:56:03;;;;;;;19.23;8.30;;;;;;;25.76;100.00;98964.34;5181201;27;20092;-53
2023/09/21 08:58:37;;;;;;;19.08;7.80;;;;;;;25.54;100.00;98990.59;5181762;27;20052;-60
2023/09/21 09:01:03;;;;;;;16.70;7.95;;;;;;;26.53;100.00;98994.78;5181256;27;20050;-60
2023/09/21 09:03:30;;;;;;;16.13;7.88;;;;;;;25.61;100.00;98988.72;5181529;27;20075;-65
2023/09/21 09:05:58;;;;;;;16.13;8.02;;;;;;;25.78;100.00;98979.44;5180993;27;20133;-61
2023/09/21 09:08:25;;;;;;;19.05;8.85;;;;;;;26.71;100.00;98993.84;5180599;27;20046;-61
2023/09/21 09:10:53;;;;;;;15.68;8.68;;;;;;;26.42;100.00;98988.84;5181068;27;20061;-62
2023/09/21 09:13:20;;;;;;;17.35;9.30;;;;;;;26.41;100.00;98974.03;5180362;27;20042;-63
2023/09/21 09:15:46;;;;;;;10.80;6.93;;;;;;;26.33;100.00;99017.03;5181179;27;20136;-57
2023/09/21 09:18:13;;;;;;;16.42;8.15;;;;;;;26.43;100.00;99010.09;5180926;27;20128;-59
2023/09/21 09:20:42;;;;;;;17.20;6.72;;;;;;;25.94;100.00;98997.22;5181271;27;20050;-63
2023/09/21 09:23:10;;;;;;;13.02;7.18;;;;;;;25.97;100.00;98985.81;5181109;27;20046;-62
2023/09/21 09:25:37;;;;;;;11.93;6.20;;;;;;;27.33;100.00;99009.19;5181718;27;20085;-59
2023/09/21 09:28:05;;;;;;;11.30;5.82;;;;;;;26.97;100.00;99013.81;5180704;27;20419;-64
2023/09/21 09:30:31;;;;;;;11.43;5.43;;;;;;;27.37;100.00;99007.72;5181010;27;20061;-58
2023/09/21 09:32:57;;;;;;;13.27;6.30;;;;;;;25.75;100.00;98994.44;5180568;27;20338;-61
2023/09/21 09:35:23;;;;;;;11.55;5.22;;;;;;;26.07;100.00;99006.22;5180639;27;20050;-66
2023/09/21 09:37:49;;;;;;;8.75;5.00;;;;;;;25.62;100.00;99012.72;5180706;27;20065;-63
2023/09/21 09:40:18;;;;;;;8.07;4.53;;;;;;;26.86;100.00;99013.63;5180700;27;20054;-65
2023/09/21 09:42:46;;;;;;;8.63;5.40;;;;;;;26.20;100.00;99006.78;5180776;27;20136;-63
2023/09/21 09:45:16;;;;;;;15.75;5.18;;;;;;;26.53;100.00;99011.63;5180621;27;20046;-62
2023/09/21 09:47:47;;;;;;;13.18;5.72;;;;;;;26.67;100.00;99027.00;5180379;27;20110;-65
2023/09/21 09:50:17;;;;;;;10.02;4.65;;;;;;;25.23;100.00;99020.91;5180044;27;20140;-62
2023/09/21 09:52:48;;;;;;;7.88;4.60;;;;;;;25.42;100.00;99004.81;5180629;27;20046;-63
2023/09/21 09:55:14;;;;;;;8.50;7.00;;;;;;;25.96;100.00;98998.31;5180132;27;20050;-62
2023/09/21 09:57:41;;;;;;;5.80;4.03;;;;;;;26.26;100.00;99013.31;5180678;27;20097;-60
2023/09/21 10:00:22;;;;;;;7.30;4.18;;;;;;;24.01;100.00;98997.09;5180407;27;20046;-64
2023/09/21 10:02:49;;;;;;;6.93;4.70;;;;;;;24.97;100.00;98976.31;5179952;27;20087;-62
2023/09/21 10:05:19;;;;;;;8.68;4.53;;;;;;;25.01;100.00;98985.34;5180334;27;20152;-65
2023/09/21 10:07:46;;;;;;;7.00;4.45;;;;;;;25.08;100.00;98995.47;5180123;27;20058;-66
2023/09/21 10:10:15;;;;;;;6.68;4.45;;;;;;;25.07;100.00;98996.72;5180226;27;20042;-63
2023/09/21 10:12:42;;;;;;;5.35;4.07;;;;;;;24.94;100.00;98984.88;5179978;27;20057;-62
2023/09/21 10:15:13;;;;;;;8.18;4.35;;;;;;;24.61;100.00;98971.47;5180430;27;20103;-61
2023/09/21 10:17:39;;;;;;;8.18;4.00;;;;;;;24.38;100.00;98958.78;5180076;27;20049;-69
2023/09/21 10:20:14;;;;;;;7.75;4.43;;;;;;;25.28;100.00;98984.56;5180541;27;20456;-63
2023/09/21 10:22:42;;;;;;;10.18;4.07;;;;;;;24.29;100.00;98948.34;5179781;27;20118;-72
2023/09/21 10:25:10;;;;;;;8.55;4.22;;;;;;;25.34;100.00;98953.84;5180196;27;20058;-59
2023/09/21 10:27:38;;;;;;;6.55;3.95;;;;;;;25.09;100.00;98960.53;5180484;27;20105;-65
2023/09/21 10:30:09;;;;;;;6.03;3.90;;;;;;;24.11;100.00;98951.09;5179844;27;20327;-69
2023/09/21 10:32:42;;;;;;;7.55;4.50;;;;;;;24.35;100.00;98954.09;5180217;27;20046;-69
2023/09/21 10:35:09;;;;;;;8.57;3.45;;;;;;;25.32;100.00;98959.16;5179623;27;20042;-64
2023/09/21 10:37:36;;;;;;;9.85;3.03;;;;;;;25.85;100.00;98960.75;5180226;27;20075;-66
2023/09/21 10:40:08;;;;;;;9.80;4.30;;;;;;;25.23;100.00;98968.38;5179403;27;20136;-65
2023/09/21 10:42:34;;;;;;;6.13;4.80;;;;;;;25.69;100.00;98954.22;5180787;27;20328;-66
2023/09/21 10:45:03;;;;;;;8.98;4.82;;;;;;;25.43;100.00;98964.28;5179351;27;20060;-66
2023/09/21 10:47:35;;;;;;;10.85;4.32;;;;;;;23.72;100.00;98925.44;5179331;27;20050;-66
2023/09/21 10:50:03;;;;;;;6.45;4.22;;;;;;;24.03;100.00;98907.84;5179792;27;20463;-65
2023/09/21 10:52:29;;;;;;;7.22;4.05;;;;;;;24.35;100.00;98907.25;5179942;27;20042;-67
2023/09/21 10:54:56;;;;;;;7.50;3.28;;;;;;;25.31;100.00;98935.16;5179748;27;20114;-66
2023/09/21 10:57:24;;;;;;;10.15;3.58;;;;;;;24.19;100.00;98941.13;5179752;27;20475;-62
2023/09/21 10:59:52;;;;;;;7.70;4.10;;;;;;;24.28;100.00;98937.59;5179524;27;20050;-63
2023/09/21 11:02:18;;;;;;;5.78;3.28;;;;;;;23.99;100.00;98921.19;5179252;27;20081;-62
2023/09/21 11:04:44;;;;;;;6.00;3.95;;;;;;;23.98;100.00;98923.19;5179739;27;20050;-62
2023/09/21 11:07:13;;;;;;;9.98;5.03;;;;;;;24.28;100.00;98918.00;5179241;27;20396;-63
2023/09/21 11:09:39;;;;;;;6.82;4.20;;;;;;;23.94;100.00;98903.75;5179626;27;20050;-64
2023/09/21 11:12:06;;;;;;;12.18;3.47;;;;;;;24.20;100.00;98903.50;5179176;27;20046;-57
2023/09/21 11:14:32;;;;;;;4.55;3.60;;;;;;;23.46;100.00;98920.03;5179281;27;20046;-63